Princeton, New Jersey
Current Conditions -  °F | °C
As of 8:53 AM on Friday 28 Nov 2014 (Local Time) from KTTN Reporting Station
Clear Clear  
Wind Chill: 24°   Ceiling: Unl
Heat Index: 32°   Visibility: 10mi
Dew Point: 24°   Wind: 10mph
Humidity: 73%   Direction: 320°NW
Pressure: 30.2"   Gusts: 16mph
Location:  40.35°N, 74.66°W
Report Text: KTTN 281353Z 32009G14KT 10SM CLR 00/M04 A3020 RMK AO2 SLP223 T00001044
Loading
Personal Weather Stations






























Interactive Weather Map New forecast layout! Learn more

10-Day Weather Forecast

Advertisements
Track Severe Weather on mobile